Time;durP1;ratioP1;P1;durP2;ratioP2;P2;SDS_P1;SDS_P2;PMS_P1;PMS_P2;Temp;Humidity;BMP_temperature;BMP_pressure;BME280_temperature;BME280_humidity;BME280_pressure;Samples;Min_cycle;Max_cycle;Signal;HPM_P1;HPM_P2
2024/04/25 00:02:03;;;;;;;6.63;3.88;;;;;;;5.35;100.00;99784.91;5601602;25;20235;-81
2024/04/25 00:04:35;;;;;;;13.00;4.53;;;;;;;5.33;100.00;99786.94;5611120;25;20233;-83
2024/04/25 00:07:06;;;;;;;5.97;5.28;;;;;;;5.02;100.00;99784.63;5608938;25;20267;-82
2024/04/25 00:09:36;;;;;;;6.82;5.38;;;;;;;4.80;100.00;99776.59;5608242;25;20216;-83
2024/04/25 00:12:10;;;;;;;4.60;4.07;;;;;;;5.03;100.00;99776.41;5609310;25;20243;-83
2024/04/25 00:14:40;;;;;;;5.05;4.55;;;;;;;4.95;100.00;99773.00;5546445;25;20226;-83
2024/04/25 00:17:11;;;;;;;8.00;5.95;;;;;;;5.01;100.00;99774.94;5573937;25;20230;-83
2024/04/25 00:19:43;;;;;;;3.90;3.60;;;;;;;4.98;100.00;99769.97;5603353;25;20382;-82
2024/04/25 00:22:13;;;;;;;8.52;6.05;;;;;;;4.65;100.00;99767.78;5578075;25;20708;-82
2024/04/25 00:24:44;;;;;;;11.73;5.40;;;;;;;4.76;100.00;99769.97;5618719;25;20297;-82
2024/04/25 00:27:18;;;;;;;8.68;3.67;;;;;;;4.72;100.00;99767.88;5619919;25;20234;-82
2024/04/25 00:29:48;;;;;;;6.75;6.13;;;;;;;4.95;100.00;99767.66;5598225;25;20285;-80
2024/04/25 00:32:19;;;;;;;3.92;3.28;;;;;;;5.33;100.00;99771.66;5620638;25;20205;-81
2024/04/25 00:34:50;;;;;;;7.93;4.75;;;;;;;5.70;100.00;99767.78;5604748;25;20219;-81
2024/04/25 00:37:21;;;;;;;8.90;5.47;;;;;;;5.77;100.00;99757.91;5581663;25;20230;-83
2024/04/25 00:39:52;;;;;;;7.50;5.35;;;;;;;5.84;100.00;99757.94;5544287;25;20226;-83
2024/04/25 00:42:26;;;;;;;5.18;3.63;;;;;;;6.13;99.99;99768.44;5544035;25;20222;-82
2024/04/25 00:44:57;;;;;;;6.65;5.05;;;;;;;6.01;99.78;99765.50;5578006;25;20260;-83
2024/04/25 00:47:28;;;;;;;5.97;5.50;;;;;;;5.88;100.00;99773.50;5591101;25;20321;-83
2024/04/25 00:50:00;;;;;;;6.45;4.28;;;;;;;5.85;100.00;99765.00;5589864;25;20218;-83
2024/04/25 00:52:31;;;;;;;4.47;3.22;;;;;;;5.76;100.00;99755.44;5575689;25;20257;-83
2024/04/25 00:55:04;;;;;;;3.50;3.22;;;;;;;5.93;100.00;99759.47;5576264;25;20234;-83
2024/04/25 00:57:40;;;;;;;6.15;4.57;;;;;;;5.72;100.00;99759.53;5576133;25;20277;-83
2024/04/25 01:00:13;;;;;;;5.13;3.10;;;;;;;5.75;100.00;99759.16;5579523;25;20221;-81
2024/04/25 01:02:45;;;;;;;6.05;3.35;;;;;;;5.60;100.00;99761.97;5579533;25;20218;-81
2024/04/25 01:05:16;;;;;;;5.13;3.92;;;;;;;5.55;100.00;99748.31;5546017;25;20222;-84
2024/04/25 01:07:47;;;;;;;6.20;5.60;;;;;;;5.31;100.00;99751.44;5581130;25;20291;-82
2024/04/25 01:10:17;;;;;;;4.63;3.33;;;;;;;5.29;100.00;99748.94;5591280;25;20292;-82
2024/04/25 01:12:51;;;;;;;5.43;3.75;;;;;;;5.31;100.00;99741.56;5591492;25;20263;-82
2024/04/25 01:15:22;;;;;;;4.35;3.15;;;;;;;5.53;100.00;99747.66;5617515;25;20315;-82
2024/04/25 01:17:52;;;;;;;3.90;3.60;;;;;;;5.65;100.00;99746.91;5622903;25;20257;-78
2024/04/25 01:20:23;;;;;;;3.47;2.30;;;;;;;5.45;100.00;99743.28;5623521;25;20218;-80
2024/04/25 01:22:56;;;;;;;3.55;3.20;;;;;;;5.53;100.00;99735.06;5626567;25;20236;-80
2024/04/25 01:25:30;;;;;;;1.63;1.50;;;;;;;5.72;100.00;99732.69;5599901;25;20222;-80
2024/04/25 01:28:01;;;;;;;7.07;3.20;;;;;;;5.58;99.94;99738.00;5585321;25;20238;-81
2024/04/25 01:30:32;;;;;;;4.97;3.33;;;;;;;5.60;100.00;99733.28;5588559;25;20214;-79
2024/04/25 01:33:05;;;;;;;4.85;4.43;;;;;;;5.80;100.00;99740.59;5586327;25;20273;-82
2024/04/25 01:35:36;;;;;;;5.88;4.78;;;;;;;5.58;100.00;99743.34;5594459;25;20213;-82
2024/04/25 01:38:08;;;;;;;7.70;4.80;;;;;;;5.53;100.00;99732.38;5625836;25;20271;-81
2024/04/25 01:40:42;;;;;;;6.88;5.13;;;;;;;5.25;100.00;99731.59;5593792;25;20223;-80
2024/04/25 01:43:13;;;;;;;6.85;3.45;;;;;;;5.01;100.00;99729.34;5605496;25;20253;-82
2024/04/25 01:45:43;;;;;;;3.38;3.03;;;;;;;4.78;100.00;99735.78;5598083;25;20289;-80
2024/04/25 01:48:14;;;;;;;6.78;5.50;;;;;;;4.60;100.00;99727.34;5609667;25;20286;-81
2024/04/25 01:50:45;;;;;;;6.82;3.80;;;;;;;4.79;100.00;99733.94;5597790;25;20209;-81
2024/04/25 01:53:16;;;;;;;3.78;3.47;;;;;;;4.74;100.00;99733.69;5587844;25;20234;-80
2024/04/25 01:55:49;;;;;;;5.78;3.85;;;;;;;4.89;100.00;99734.41;5588629;25;20210;-79
2024/04/25 01:58:20;;;;;;;6.63;4.47;;;;;;;4.87;100.00;99728.44;5588694;25;20282;-79
2024/04/25 02:00:50;;;;;;;4.25;3.85;;;;;;;4.78;100.00;99741.13;5589539;25;20210;-78
2024/04/25 02:03:21;;;;;;;5.07;3.50;;;;;;;4.88;100.00;99734.63;5589632;25;20230;-80
2024/04/25 02:05:52;;;;;;;6.65;3.83;;;;;;;4.65;100.00;99724.91;5589130;25;20210;-79
2024/04/25 02:08:22;;;;;;;4.30;3.78;;;;;;;4.84;100.00;99728.81;5589504;25;20222;-80
2024/04/25 02:10:56;;;;;;;5.85;3.42;;;;;;;4.62;100.00;99735.19;5590299;25;20210;-79
2024/04/25 02:13:26;;;;;;;9.68;3.70;;;;;;;4.77;100.00;99736.78;5588669;25;20222;-81
2024/04/25 02:15:57;;;;;;;4.20;3.80;;;;;;;4.68;100.00;99735.28;5620948;25;20225;-81
2024/04/25 02:18:28;;;;;;;3.90;3.70;;;;;;;4.57;100.00;99733.09;5591449;25;20288;-82
2024/04/25 02:26:47;;;;;;;6.80;2.40;;;;;;;4.83;100.00;99729.84;5576438;25;20206;-79
2024/04/25 02:29:17;;;;;;;7.70;3.55;;;;;;;4.86;100.00;99733.97;5588184;25;20294;-80
2024/04/25 02:31:48;;;;;;;9.68;4.47;;;;;;;4.73;100.00;99734.69;5587766;25;20217;-80
2024/04/25 02:34:19;;;;;;;7.40;3.20;;;;;;;4.89;100.00;99729.03;5587098;25;20226;-80
2024/04/25 02:36:49;;;;;;;7.38;3.45;;;;;;;4.65;100.00;99730.28;5588192;25;20220;-80
2024/04/25 02:39:20;;;;;;;7.53;4.80;;;;;;;4.55;100.00;99726.28;5587913;25;20257;-81
2024/04/25 02:41:53;;;;;;;3.80;3.05;;;;;;;4.35;100.00;99726.09;5587930;25;20218;-81
2024/04/25 02:44:22;;;;;;;5.60;3.20;;;;;;;4.60;100.00;99721.19;5591484;25;20241;-80
2024/04/25 02:46:53;;;;;;;5.30;2.78;;;;;;;4.37;100.00;99726.72;5599776;25;20214;-80
2024/04/25 02:49:21;;;;;;;10.77;6.32;;;;;;;4.13;100.00;99722.53;5588172;25;20214;-81
2024/04/25 02:51:52;;;;;;;4.20;3.80;;;;;;;4.22;100.00;99717.91;5621865;25;20273;-81
2024/04/25 02:54:20;;;;;;;8.98;3.65;;;;;;;4.17;100.00;99709.59;5594049;25;20513;-81
2024/04/25 02:56:53;;;;;;;3.72;3.25;;;;;;;4.47;100.00;99713.84;5626028;25;20255;-80
2024/04/25 02:59:21;;;;;;;4.55;3.30;;;;;;;4.57;100.00;99717.03;5626244;25;20229;-78
2024/04/25 03:01:52;;;;;;;6.97;2.42;;;;;;;4.56;100.00;99714.53;5593296;25;20229;-80
2024/04/25 03:04:20;;;;;;;4.38;3.83;;;;;;;4.73;100.00;99715.94;5625706;25;20296;-79
2024/04/25 03:06:51;;;;;;;4.68;2.38;;;;;;;4.77;100.00;99714.53;5625766;25;20205;-80
2024/04/25 03:09:19;;;;;;;2.85;2.17;;;;;;;4.94;100.00;99718.56;5619832;25;20213;-82
2024/04/25 03:11:53;;;;;;;3.47;3.28;;;;;;;5.12;100.00;99710.06;5620403;25;20244;-81
2024/04/25 03:14:21;;;;;;;2.40;2.10;;;;;;;5.18;100.00;99717.31;5593112;25;20220;-80
2024/04/25 03:16:52;;;;;;;1.35;1.17;;;;;;;5.06;100.00;99713.50;5593720;25;20216;-80
2024/04/25 03:19:20;;;;;;;2.85;2.65;;;;;;;5.31;100.00;99706.69;5625640;25;20213;-82
2024/04/25 03:21:51;;;;;;;2.80;2.60;;;;;;;5.45;99.72;99712.94;5593577;25;20225;-80
2024/04/25 03:24:19;;;;;;;4.20;3.88;;;;;;;5.42;99.69;99713.34;5625877;25;20205;-79
2024/04/25 03:26:53;;;;;;;7.13;1.90;;;;;;;5.35;99.99;99710.63;5625940;25;20209;-79
2024/04/25 03:29:21;;;;;;;4.88;2.40;;;;;;;5.41;100.00;99717.88;5587849;25;20226;-82
2024/04/25 03:31:51;;;;;;;2.20;1.55;;;;;;;5.52;98.92;99711.94;5586173;25;20260;-79
2024/04/25 03:34:20;;;;;;;3.70;2.30;;;;;;;5.64;99.63;99713.06;5587458;25;20236;-82
2024/04/25 03:36:52;;;;;;;2.47;2.13;;;;;;;5.57;98.65;99714.03;5587852;25;20269;-81
2024/04/25 03:39:23;;;;;;;4.07;3.53;;;;;;;5.45;98.31;99719.13;5587936;25;20210;-82
2024/04/25 03:41:56;;;;;;;2.55;2.00;;;;;;;5.25;98.83;99716.34;5587589;25;20302;-81
2024/04/25 03:44:27;;;;;;;3.88;3.45;;;;;;;5.12;99.67;99704.69;5587936;25;20241;-83
2024/04/25 03:46:58;;;;;;;3.80;2.33;;;;;;;5.05;100.00;99711.84;5587595;25;20210;-79
2024/04/25 03:49:29;;;;;;;3.42;2.83;;;;;;;5.09;100.00;99715.78;5588125;25;20218;-82
2024/04/25 03:52:01;;;;;;;2.22;1.75;;;;;;;5.08;100.00;99716.84;5588165;25;20213;-79
2024/04/25 03:54:32;;;;;;;1.55;1.40;;;;;;;4.98;99.26;99719.03;5595294;25;20259;-79
2024/04/25 03:57:13;;;;;;;3.47;2.20;;;;;;;4.95;100.00;99722.09;5591145;25;20222;-81
2024/04/25 03:59:51;;;;;;;2.60;2.40;;;;;;;5.05;100.00;99715.34;5614903;25;20221;-82
2024/04/25 04:02:28;;;;;;;5.13;2.13;;;;;;;5.27;99.42;99716.16;5610373;25;20340;-82
2024/04/25 04:05:07;;;;;;;2.65;2.05;;;;;;;5.21;98.78;99720.44;5554380;25;20289;-81
2024/04/25 04:07:38;;;;;;;5.15;1.95;;;;;;;5.24;98.34;99716.53;5568827;25;20237;-83
2024/04/25 04:10:10;;;;;;;1.65;1.55;;;;;;;5.18;98.38;99720.00;5571490;25;20222;-83
2024/04/25 04:12:43;;;;;;;1.35;1.15;;;;;;;5.37;98.15;99724.69;5574218;25;20591;-81
2024/04/25 04:15:14;;;;;;;1.77;1.60;;;;;;;5.50;97.01;99724.75;5577624;25;20218;-83
2024/04/25 04:17:50;;;;;;;2.15;1.17;;;;;;;5.47;96.42;99725.13;5571978;25;20234;-83
2024/04/25 04:20:20;;;;;;;2.78;1.55;;;;;;;5.46;95.66;99726.16;5573009;25;20237;-83
2024/04/25 04:22:51;;;;;;;1.90;0.95;;;;;;;5.34;96.30;99717.00;5570090;25;20635;-83
2024/04/25 04:25:22;;;;;;;3.05;2.30;;;;;;;5.38;96.39;99720.09;5570569;25;20600;-82
2024/04/25 04:27:55;;;;;;;3.40;2.15;;;;;;;5.25;97.17;99715.50;5573706;25;20222;-84
2024/04/25 04:30:25;;;;;;;2.22;1.90;;;;;;;5.25;97.35;99721.69;5569185;25;20298;-83
2024/04/25 04:32:56;;;;;;;3.05;2.45;;;;;;;5.28;97.82;99723.16;5574129;25;20271;-82
2024/04/25 04:35:27;;;;;;;1.00;0.80;;;;;;;5.35;97.06;99732.06;5577054;25;20281;-83
2024/04/25 04:37:58;;;;;;;1.83;1.73;;;;;;;5.33;96.94;99727.91;5549113;25;20245;-81
2024/04/25 04:40:28;;;;;;;4.50;1.77;;;;;;;5.32;97.69;99724.44;5551856;25;20226;-83
2024/04/25 04:43:01;;;;;;;1.63;1.52;;;;;;;5.36;97.37;99732.91;5584254;25;20265;-81
2024/04/25 04:45:32;;;;;;;6.55;3.10;;;;;;;5.37;97.17;99727.34;5585363;25;20218;-82
2024/04/25 04:48:03;;;;;;;8.70;2.05;;;;;;;5.47;96.76;99730.50;5585176;25;20238;-80
2024/04/25 04:51:00;;;;;;;2.22;1.38;;;;;;;5.53;95.91;99735.06;5586423;25;20222;-83
2024/04/25 04:53:43;;;;;;;1.48;0.95;;;;;;;5.57;95.72;99730.97;5554303;25;20214;-83
2024/04/25 04:56:14;;;;;;;1.63;1.50;;;;;;;5.52;96.51;99732.56;5588291;25;20213;-83
2024/04/25 04:58:48;;;;;;;1.67;1.58;;;;;;;5.68;96.77;99732.25;5590518;25;20257;-82
2024/04/25 05:01:18;;;;;;;3.45;2.13;;;;;;;5.58;95.32;99737.16;5590828;25;20202;-82
2024/04/25 05:03:55;;;;;;;1.58;1.08;;;;;;;5.60;95.67;99730.59;5558993;25;20203;-84
2024/04/25 05:06:26;;;;;;;2.38;1.90;;;;;;;5.69;95.38;99733.94;5606220;25;20284;-84
2024/04/25 05:08:56;;;;;;;2.70;2.47;;;;;;;5.75;94.53;99743.03;5627969;25;20209;-83
2024/04/25 05:11:53;;;;;;;1.70;0.90;;;;;;;5.97;93.94;99734.69;5596140;25;20210;-83
2024/04/25 05:14:27;;;;;;;2.95;1.58;;;;;;;6.12;93.10;99737.25;5596071;25;20308;-82
2024/04/25 05:16:57;;;;;;;2.38;1.63;;;;;;;6.16;93.26;99743.84;5628434;25;20232;-81
2024/04/25 05:19:28;;;;;;;1.90;1.70;;;;;;;6.41;91.26;99739.59;5628187;25;20266;-81
2024/04/25 05:21:59;;;;;;;1.50;1.10;;;;;;;6.37;90.39;99738.34;5628308;25;20205;-82
2024/04/25 05:24:30;;;;;;;1.70;1.10;;;;;;;6.49;90.40;99739.41;5627851;25;20213;-83
2024/04/25 05:27:01;;;;;;;2.70;2.28;;;;;;;6.67;88.79;99735.31;5625875;25;20221;-81
2024/04/25 05:29:59;;;;;;;2.17;1.27;;;;;;;6.63;88.87;99736.75;5590061;25;20282;-78
2024/04/25 05:32:34;;;;;;;2.75;1.00;;;;;;;6.79;87.85;99745.25;5626571;25;20285;-79
2024/04/25 05:35:06;;;;;;;2.72;1.45;;;;;;;6.96;87.27;99734.91;5626979;25;20247;-79
2024/04/25 05:37:37;;;;;;;1.38;1.27;;;;;;;6.86;87.93;99745.25;5626208;25;20321;-81
2024/04/25 05:40:08;;;;;;;2.10;1.90;;;;;;;7.10;86.33;99744.63;5626994;25;20225;-79
2024/04/25 05:42:39;;;;;;;3.17;1.80;;;;;;;7.21;85.48;99737.81;5612577;25;20264;-80
2024/04/25 05:45:13;;;;;;;2.75;2.20;;;;;;;7.20;84.79;99749.59;5600852;25;20264;-80
2024/04/25 05:47:44;;;;;;;2.03;1.20;;;;;;;7.45;84.72;99742.53;5585536;25;20295;-81
2024/04/25 05:50:15;;;;;;;2.67;1.55;;;;;;;7.62;83.36;99746.44;5615971;25;20426;-81
2024/04/25 05:52:46;;;;;;;2.90;1.92;;;;;;;7.68;83.94;99750.16;5617017;25;20263;-82
2024/04/25 05:55:16;;;;;;;2.90;2.60;;;;;;;8.16;80.78;99746.03;5655720;25;20212;-81
2024/04/25 05:57:47;;;;;;;3.25;1.92;;;;;;;8.54;79.62;99751.47;5612926;25;20715;-81
2024/04/25 06:00:21;;;;;;;3.75;2.20;;;;;;;8.93;76.71;99752.25;5624735;25;20233;-80
2024/04/25 06:02:51;;;;;;;2.63;2.13;;;;;;;9.12;75.77;99752.09;5618084;25;20259;-81
2024/04/25 06:05:22;;;;;;;1.95;1.20;;;;;;;9.07;74.15;99746.53;5620222;25;20257;-81
2024/04/25 06:07:52;;;;;;;2.03;1.85;;;;;;;8.95;75.86;99747.47;5593004;25;20232;-82
2024/04/25 06:10:23;;;;;;;2.38;1.60;;;;;;;9.20;73.63;99747.47;5654575;25;20754;-81
2024/04/25 06:12:54;;;;;;;1.70;1.60;;;;;;;9.40;73.81;99750.78;5617825;25;20255;-80
2024/04/25 06:15:27;;;;;;;6.40;3.42;;;;;;;9.65;73.26;99746.19;5613173;25;20721;-82
2024/04/25 06:17:58;;;;;;;2.78;1.88;;;;;;;9.40;71.40;99748.09;5616464;25;20237;-81
2024/04/25 06:20:28;;;;;;;2.33;1.70;;;;;;;9.53;72.88;99748.00;5612945;25;20276;-81
2024/04/25 06:23:00;;;;;;;3.45;2.50;;;;;;;9.76;72.21;99753.56;5542195;25;20514;-81
2024/04/25 06:25:31;;;;;;;2.42;2.22;;;;;;;9.59;70.97;99744.38;5583714;25;20289;-81
2024/04/25 06:28:02;;;;;;;3.10;1.63;;;;;;;9.58;71.50;99748.16;5574594;25;20250;-81
2024/04/25 06:30:36;;;;;;;2.80;2.40;;;;;;;9.53;72.13;99753.38;5592085;25;20230;-82
2024/04/25 06:33:06;;;;;;;1.80;1.05;;;;;;;9.54;72.19;99755.84;5597021;25;20217;-81
2024/04/25 06:35:37;;;;;;;2.85;1.83;;;;;;;9.71;72.16;99750.69;5585731;25;20229;-80
2024/04/25 06:38:12;;;;;;;2.88;1.80;;;;;;;9.41;71.58;99755.97;5623060;25;20300;-79
2024/04/25 06:40:43;;;;;;;1.30;1.20;;;;;;;9.28;72.76;99761.50;5623284;25;20232;-81
2024/04/25 06:43:14;;;;;;;2.55;1.50;;;;;;;9.19;73.90;99751.22;5587901;25;20870;-79
2024/04/25 06:45:47;;;;;;;2.97;1.67;;;;;;;8.90;73.58;99747.28;5603391;25;20228;-81
2024/04/25 06:48:18;;;;;;;1.95;1.23;;;;;;;8.58;75.02;99754.53;5578317;25;20236;-80
2024/04/25 06:50:49;;;;;;;2.65;1.98;;;;;;;8.43;76.82;99751.31;5593419;25;20219;-81
2024/04/25 06:53:20;;;;;;;1.13;1.00;;;;;;;8.56;77.34;99752.09;5601852;25;20267;-79
2024/04/25 06:55:51;;;;;;;1.73;0.90;;;;;;;8.67;75.33;99758.63;5589133;25;20198;-80
2024/04/25 06:58:22;;;;;;;1.25;1.10;;;;;;;8.63;75.55;99752.03;5580606;25;20265;-80
2024/04/25 07:00:55;;;;;;;2.28;1.60;;;;;;;8.57;76.04;99756.41;5599143;25;20248;-82
2024/04/25 07:03:26;;;;;;;4.28;2.15;;;;;;;8.61;75.84;99759.53;5571760;25;20273;-81
2024/04/25 07:05:57;;;;;;;4.20;1.60;;;;;;;8.67;76.19;99758.63;5574877;25;20217;-80
2024/04/25 07:08:29;;;;;;;2.00;1.63;;;;;;;8.57;77.14;99763.66;5580817;25;20280;-81
2024/04/25 07:11:02;;;;;;;3.35;2.78;;;;;;;8.41;77.91;99761.50;5571508;25;20230;-81
2024/04/25 07:13:32;;;;;;;1.63;1.33;;;;;;;8.18;78.98;99764.69;5563348;25;20289;-81
2024/04/25 07:16:09;;;;;;;3.35;2.28;;;;;;;8.08;80.14;99759.75;5570221;25;20272;-81
2024/04/25 07:18:40;;;;;;;4.57;1.88;;;;;;;8.01;80.75;99763.50;5535482;25;20709;-81
2024/04/25 07:21:10;;;;;;;3.30;2.00;;;;;;;8.19;81.09;99766.31;5554086;25;20280;-79
2024/04/25 07:23:42;;;;;;;7.15;3.60;;;;;;;8.38;78.87;99775.38;5581652;25;20276;-81
2024/04/25 07:26:12;;;;;;;2.38;1.83;;;;;;;8.49;79.17;99775.56;5611661;25;20232;-81
2024/04/25 07:28:43;;;;;;;2.25;2.05;;;;;;;8.33;79.36;99772.53;5596280;25;20268;-81
2024/04/25 07:31:16;;;;;;;2.47;2.03;;;;;;;8.37;79.84;99773.75;5539931;25;20709;-81
2024/04/25 07:33:47;;;;;;;2.92;1.33;;;;;;;8.43;79.29;99772.88;5570613;25;20230;-80
2024/04/25 07:36:22;;;;;;;4.57;2.78;;;;;;;8.52;78.25;99774.31;5570934;25;20234;-82
2024/04/25 07:38:53;;;;;;;1.75;1.45;;;;;;;8.59;78.01;99775.06;5552316;25;20248;-79
2024/04/25 07:41:25;;;;;;;1.35;1.05;;;;;;;8.60;77.82;99769.47;5592568;25;20275;-82
2024/04/25 07:43:56;;;;;;;2.50;2.30;;;;;;;8.65;77.97;99768.81;5605451;25;20735;-81
2024/04/25 07:46:30;;;;;;;2.17;1.63;;;;;;;8.77;77.51;99775.16;5589381;25;20289;-81
2024/04/25 07:49:02;;;;;;;3.67;3.22;;;;;;;8.81;76.61;99770.97;5576303;25;20245;-81
2024/04/25 07:51:32;;;;;;;6.30;3.10;;;;;;;8.83;76.73;99771.59;5599547;25;20791;-81
2024/04/25 07:54:03;;;;;;;3.35;2.78;;;;;;;8.76;77.58;99778.94;5569579;25;20241;-81
2024/04/25 07:56:33;;;;;;;4.43;2.35;;;;;;;8.58;78.27;99776.13;5607191;25;20265;-82
2024/04/25 07:59:04;;;;;;;2.92;1.42;;;;;;;8.37;79.15;99773.75;5579741;25;20269;-81
2024/04/25 08:01:37;;;;;;;4.10;1.42;;;;;;;8.46;79.21;99784.09;5608190;25;20293;-81
2024/04/25 08:04:10;;;;;;;1.70;1.60;;;;;;;8.38;79.53;99781.59;5602070;25;20277;-80
2024/04/25 08:06:43;;;;;;;3.17;1.75;;;;;;;8.37;78.96;99788.06;5608629;25;20255;-82
2024/04/25 08:09:13;;;;;;;2.60;1.45;;;;;;;8.29;79.56;99781.03;5577611;25;20217;-81
2024/04/25 08:11:44;;;;;;;7.30;3.08;;;;;;;8.53;79.08;99784.03;5608866;25;20259;-80
2024/04/25 08:14:15;;;;;;;1.80;1.58;;;;;;;8.77;77.66;99794.03;5609533;25;20256;-81
2024/04/25 08:16:49;;;;;;;4.55;2.08;;;;;;;9.00;76.87;99793.50;5609711;25;20249;-81
2024/04/25 08:19:20;;;;;;;2.35;1.75;;;;;;;8.89;76.90;99789.63;5609125;25;20333;-81
2024/04/25 08:21:51;;;;;;;3.60;1.55;;;;;;;9.13;76.57;99786.13;5580365;25;20252;-81
2024/04/25 08:24:24;;;;;;;2.50;2.10;;;;;;;9.21;76.24;99786.88;5629435;25;20272;-82
2024/04/25 08:26:54;;;;;;;4.82;3.00;;;;;;;9.27;74.71;99796.81;5562693;25;20268;-82
2024/04/25 08:29:25;;;;;;;2.00;1.55;;;;;;;9.55;74.15;99797.19;5569402;25;20600;-81
2024/04/25 08:31:58;;;;;;;1.70;1.27;;;;;;;9.51;72.87;99793.28;5556070;25;20225;-82
2024/04/25 08:34:29;;;;;;;3.38;2.10;;;;;;;9.61;73.21;99796.31;5580950;25;20228;-82
2024/04/25 08:37:00;;;;;;;4.13;2.17;;;;;;;9.87;71.21;99793.34;5648497;25;20216;-81
2024/04/25 08:39:31;;;;;;;4.27;2.80;;;;;;;10.19;69.88;99791.34;5624886;25;20288;-81
2024/04/25 08:42:05;;;;;;;2.25;1.80;;;;;;;10.60;69.47;99804.13;5561404;25;20446;-81
2024/04/25 08:44:36;;;;;;;4.53;2.67;;;;;;;10.51;67.89;99788.44;5596676;25;20277;-79
2024/04/25 08:47:10;;;;;;;3.30;1.57;;;;;;;11.02;65.46;99796.03;5579246;25;20466;-81
2024/04/25 08:49:42;;;;;;;4.93;2.40;;;;;;;10.46;66.49;99799.94;5559133;25;20801;-83
2024/04/25 08:52:14;;;;;;;3.42;1.58;;;;;;;10.52;67.39;99799.03;5603671;25;20444;-81
2024/04/25 08:54:46;;;;;;;3.40;2.10;;;;;;;10.42;67.64;99801.44;5595226;25;20265;-81
2024/04/25 08:57:17;;;;;;;2.65;1.92;;;;;;;10.15;67.50;99795.53;5592237;25;20477;-81
2024/04/25 08:59:48;;;;;;;4.50;2.72;;;;;;;9.68;69.49;99802.47;5570001;25;20229;-82
2024/04/25 09:02:25;;;;;;;2.77;2.50;;;;;;;9.49;71.75;99796.19;5574459;25;20762;-82
2024/04/25 09:04:58;;;;;;;5.68;2.05;;;;;;;9.42;71.59;99798.13;5555844;25;20534;-81
2024/04/25 09:07:29;;;;;;;2.35;1.58;;;;;;;9.46;71.59;99785.84;5572378;25;20237;-81
2024/04/25 09:10:00;;;;;;;2.75;1.50;;;;;;;9.58;71.33;99783.25;5599335;25;20300;-83
2024/04/25 09:12:32;;;;;;;3.75;1.70;;;;;;;9.67;71.78;99781.91;5604253;25;20217;-83
2024/04/25 09:15:04;;;;;;;2.58;2.38;;;;;;;9.98;68.56;99789.88;5606778;25;20780;-81
2024/04/25 09:17:37;;;;;;;2.97;1.42;;;;;;;9.82;69.29;99789.66;5604694;25;20237;-82
2024/04/25 09:20:09;;;;;;;2.03;1.50;;;;;;;10.30;68.69;99782.47;5607365;25;20236;-82
2024/04/25 09:22:40;;;;;;;2.53;1.58;;;;;;;10.98;66.10;99782.16;5592116;25;20229;-82
2024/04/25 09:25:11;;;;;;;3.38;2.25;;;;;;;11.32;63.36;99785.97;5593779;25;20268;-81
2024/04/25 09:27:42;;;;;;;1.83;1.63;;;;;;;11.33;62.65;99779.47;5569200;25;20841;-82
2024/04/25 09:30:13;;;;;;;2.80;2.23;;;;;;;10.56;64.07;99783.16;5580073;25;20469;-81
2024/04/25 09:32:46;;;;;;;3.40;1.90;;;;;;;11.05;62.83;99784.75;5607963;25;20598;-81
2024/04/25 09:35:17;;;;;;;2.33;2.13;;;;;;;11.39;60.96;99781.25;5611506;25;20487;-80
2024/04/25 09:37:48;;;;;;;3.00;1.70;;;;;;;11.11;61.44;99783.81;5589545;25;20453;-80
2024/04/25 09:40:19;;;;;;;1.47;1.20;;;;;;;11.13;59.98;99782.53;5623210;25;20494;-81
2024/04/25 09:42:53;;;;;;;1.63;1.33;;;;;;;10.46;63.73;99783.72;5592778;25;20452;-82
2024/04/25 09:45:27;;;;;;;3.63;3.00;;;;;;;10.18;66.46;99778.03;5589031;25;20465;-81
2024/04/25 09:48:09;;;;;;;3.73;3.00;;;;;;;10.26;66.85;99780.47;5555180;25;20806;-81
2024/04/25 09:50:49;;;;;;;2.10;1.90;;;;;;;10.78;66.30;99782.44;5599792;25;20452;-82
2024/04/25 09:53:26;;;;;;;2.90;1.67;;;;;;;10.57;63.83;99776.69;5600414;25;20456;-82
2024/04/25 09:55:57;;;;;;;5.40;2.67;;;;;;;10.53;65.37;99770.09;5573808;25;20439;-80
2024/04/25 09:58:42;;;;;;;4.23;3.20;;;;;;;10.20;66.44;99784.06;5573328;25;20462;-84
2024/04/25 10:01:14;;;;;;;2.80;2.07;;;;;;;9.91;67.39;99781.03;5605614;25;20542;-80
2024/04/25 10:03:48;;;;;;;3.27;2.20;;;;;;;9.80;68.28;99776.38;5590664;25;20560;-81
2024/04/25 10:06:20;;;;;;;2.17;1.97;;;;;;;9.69;68.31;99777.09;5611627;25;20432;-80
2024/04/25 10:08:51;;;;;;;2.03;1.60;;;;;;;9.61;69.14;99780.09;5587797;25;20866;-81
2024/04/25 10:11:22;;;;;;;3.78;2.35;;;;;;;9.53;69.87;99778.53;5590472;25;20448;-80
2024/04/25 10:13:53;;;;;;;2.33;1.88;;;;;;;9.38;71.04;99782.59;5558864;25;20238;-79
2024/04/25 10:16:25;;;;;;;2.95;1.42;;;;;;;8.97;73.69;99786.66;5573129;25;20234;-81
2024/04/25 10:18:59;;;;;;;3.05;1.65;;;;;;;8.86;74.96;99779.25;5549770;25;20281;-81
2024/04/25 10:21:30;;;;;;;2.47;1.58;;;;;;;8.66;76.59;99781.28;5565520;25;20637;-81
2024/04/25 10:24:11;;;;;;;2.00;1.35;;;;;;;8.80;76.20;99782.84;5591855;25;20229;-80
2024/04/25 10:26:49;;;;;;;2.92;2.40;;;;;;;8.80;75.51;99773.91;5552059;25;20258;-81
2024/04/25 10:29:20;;;;;;;2.20;1.48;;;;;;;9.07;75.88;99781.59;5579847;25;20218;-82
2024/04/25 10:31:51;;;;;;;1.23;1.00;;;;;;;9.41;73.44;99787.56;5608528;25;20991;-82
2024/04/25 10:34:24;;;;;;;1.02;0.77;;;;;;;9.80;71.60;99779.06;5612968;25;20233;-81
2024/04/25 10:36:55;;;;;;;1.33;1.13;;;;;;;10.26;68.71;99775.06;5597315;25;20229;-81
2024/04/25 10:39:27;;;;;;;1.73;1.10;;;;;;;10.65;67.89;99777.19;5550252;25;20264;-82
2024/04/25 10:41:58;;;;;;;1.20;0.85;;;;;;;11.27;64.21;99781.28;5573341;25;20451;-82
2024/04/25 10:44:29;;;;;;;1.23;0.90;;;;;;;11.67;62.11;99781.38;5608556;25;20233;-82
2024/04/25 10:46:59;;;;;;;1.77;1.43;;;;;;;11.65;61.39;99783.53;5581046;25;20548;-80
2024/04/25 10:49:33;;;;;;;2.23;1.37;;;;;;;11.46;60.33;99781.16;5612760;25;20466;-81
2024/04/25 10:52:07;;;;;;;1.00;0.80;;;;;;;11.65;57.20;99775.41;5542286;25;20450;-80
2024/04/25 10:54:38;;;;;;;1.47;1.03;;;;;;;11.48;57.93;99779.03;5585154;25;20875;-80
2024/04/25 10:57:09;;;;;;;0.80;0.50;;;;;;;11.51;56.36;99779.41;5574970;25;20469;-81
2024/04/25 10:59:39;;;;;;;1.70;1.20;;;;;;;11.56;56.60;99775.97;5599923;25;20435;-80
2024/04/25 11:02:11;;;;;;;1.73;1.10;;;;;;;11.52;57.01;99780.22;5579398;25;20564;-82
2024/04/25 11:04:45;;;;;;;1.70;1.00;;;;;;;11.58;57.09;99776.56;5581638;25;20430;-81
2024/04/25 11:07:16;;;;;;;2.10;0.90;;;;;;;11.46;57.09;99778.44;5586737;25;20890;-82
2024/04/25 11:09:48;;;;;;;2.80;1.07;;;;;;;11.41;56.64;99773.75;5573788;25;20537;-82
2024/04/25 11:12:20;;;;;;;1.50;0.80;;;;;;;11.28;55.70;99774.78;5590463;25;20500;-81
2024/04/25 11:14:57;;;;;;;0.90;0.73;;;;;;;11.71;55.44;99774.44;5599726;25;20488;-82
2024/04/25 11:17:28;;;;;;;1.20;0.90;;;;;;;11.58;54.41;99774.69;5576890;25;20473;-81
2024/04/25 11:20:12;;;;;;;1.50;0.93;;;;;;;12.03;53.17;99783.03;5613599;25;20449;-81
2024/04/25 11:22:44;;;;;;;1.90;1.70;;;;;;;12.08;54.26;99790.47;5589344;25;20444;-81
2024/04/25 11:25:23;;;;;;;3.00;1.80;;;;;;;11.47;58.03;99793.66;5602213;25;20514;-81
2024/04/25 11:27:54;;;;;;;2.47;1.20;;;;;;;10.78;61.82;99787.84;5602011;25;20461;-82
2024/04/25 11:30:27;;;;;;;1.90;1.30;;;;;;;10.59;63.74;99788.97;5606841;25;20550;-83
2024/04/25 11:33:03;;;;;;;1.60;1.17;;;;;;;10.84;63.94;99794.22;5570688;25;20510;-82
2024/04/25 11:35:39;;;;;;;2.60;1.60;;;;;;;11.28;63.84;99787.47;5587579;25;20494;-80
2024/04/25 11:38:16;;;;;;;2.20;1.87;;;;;;;11.38;61.50;99785.03;5587409;25;20466;-78
2024/04/25 11:40:48;;;;;;;2.30;1.80;;;;;;;10.96;62.73;99794.25;5594765;25;20449;-83
2024/04/25 11:43:22;;;;;;;4.13;1.90;;;;;;;10.95;63.21;99779.06;5569916;25;20434;-82
2024/04/25 11:45:53;;;;;;;4.23;2.07;;;;;;;10.96;63.65;99784.25;5583505;25;20541;-82
2024/04/25 11:48:26;;;;;;;5.13;2.83;;;;;;;11.02;62.91;99787.91;5587196;25;20464;-82
2024/04/25 11:50:59;;;;;;;3.17;1.57;;;;;;;10.73;63.03;99784.19;5567505;25;20487;-81
2024/04/25 11:53:35;;;;;;;1.83;1.57;;;;;;;10.96;62.74;99786.97;5569526;25;20533;-81
2024/04/25 11:56:08;;;;;;;12.47;1.77;;;;;;;11.31;61.49;99784.31;5591904;25;20457;-80
2024/04/25 11:58:38;;;;;;;2.67;1.70;;;;;;;11.64;60.99;99781.03;5615663;25;20545;-81
2024/04/25 12:01:09;;;;;;;3.30;1.60;;;;;;;11.97;59.20;99784.00;5610503;25;20532;-81
2024/04/25 12:03:39;;;;;;;1.07;0.97;;;;;;;12.49;57.27;99775.84;5590503;25;20445;-82
2024/04/25 12:06:13;;;;;;;3.17;1.57;;;;;;;13.05;54.10;99781.25;5595513;25;20532;-84